Terminal Aerodrome Forecast
Issued by NWS Green Bay, WI

Home | Current Version | Previous Version | Text Only | Print | Product List | Glossary Off
Versions: 1 2 3 4 5 6 7 8 9 10 11 12 13 14 15 16 17

000
FTUS43 KGRB 281125
TAFGRB
TAF
KGRB 281125Z 2812/2912 05014KT P6SM VCSH BKN080 OVC100
     FM281500 06012G18KT P6SM VCSH SCT070 OVC090
     FM290000 05008KT P6SM VCSH SCT060 OVC080
     FM290500 02005KT P6SM BKN090=

USA.gov is the U.S. government's official web portal to all federal, state and local government web resources and services.